createdAt,value
2023-03-26T00:02:47.483Z,100.00
2023-03-26T00:07:51.587Z,100.00
2023-03-26T00:12:54.097Z,100.00
2023-03-26T00:17:56.988Z,100.00
2023-03-26T00:23:02.391Z,100.00
2023-03-26T00:28:06.221Z,100.00
2023-03-26T00:33:11.730Z,100.00
2023-03-26T00:38:16.054Z,100.00
2023-03-26T00:43:19.809Z,100.00
2023-03-26T00:48:31.512Z,100.00
2023-03-26T00:53:42.769Z,100.00
2023-03-26T00:58:46.010Z,100.00
2023-03-26T01:04:04.919Z,100.00
2023-03-26T01:09:16.876Z,100.00
2023-03-26T01:14:23.448Z,100.00
2023-03-26T01:19:30.390Z,100.00
2023-03-26T01:24:34.258Z,100.00
2023-03-26T01:29:44.016Z,100.00
2023-03-26T01:34:57.360Z,100.00
2023-03-26T01:40:06.939Z,100.00
2023-03-26T01:45:14.355Z,100.00
2023-03-26T01:50:17.129Z,100.00
2023-03-26T01:55:22.886Z,100.00
2023-03-26T02:00:30.298Z,100.00
2023-03-26T02:05:37.823Z,100.00
2023-03-26T02:10:45.004Z,100.00
2023-03-26T02:15:57.075Z,100.00
2023-03-26T02:20:59.749Z,100.00
2023-03-26T02:26:06.765Z,100.00
2023-03-26T02:31:11.133Z,100.00
2023-03-26T02:36:14.709Z,100.00
2023-03-26T02:41:18.633Z,100.00
2023-03-26T02:46:21.353Z,100.00
2023-03-26T02:51:25.141Z,100.00
2023-03-26T02:56:29.739Z,100.00
2023-03-26T03:01:34.734Z,100.00
2023-03-26T03:06:38.206Z,100.00
2023-03-26T03:11:42.376Z,100.00
2023-03-26T03:16:45.297Z,100.00
2023-03-26T03:21:47.851Z,100.00
2023-03-26T03:26:56.736Z,100.00
2023-03-26T03:32:00.064Z,100.00
2023-03-26T03:37:02.586Z,100.00
2023-03-26T03:42:06.483Z,100.00
2023-03-26T03:47:13.505Z,100.00
2023-03-26T03:52:16.335Z,100.00
2023-03-26T03:57:21.905Z,100.00
2023-03-26T04:02:30.254Z,100.00
2023-03-26T04:07:34.112Z,100.00
2023-03-26T04:12:38.040Z,100.00
2023-03-26T04:17:42.915Z,100.00
2023-03-26T04:22:45.791Z,100.00
2023-03-26T04:27:49.942Z,100.00
2023-03-26T04:32:53.071Z,100.00
2023-03-26T04:37:56.243Z,100.00
2023-03-26T04:43:02.267Z,100.00
2023-03-26T04:48:07.246Z,100.00
2023-03-26T04:53:13.941Z,100.00
2023-03-26T04:58:18.411Z,100.00
2023-03-26T05:03:21.184Z,100.00
2023-03-26T05:08:23.734Z,100.00
2023-03-26T05:13:27.631Z,100.00
2023-03-26T05:18:32.230Z,100.00
2023-03-26T05:23:34.728Z,100.00
2023-03-26T05:28:38.610Z,100.00
2023-03-26T05:33:41.210Z,100.00
2023-03-26T05:38:47.243Z,100.00
2023-03-26T05:43:51.165Z,100.00
2023-03-26T05:48:53.938Z,100.00
2023-03-26T05:53:56.459Z,100.00
2023-03-26T05:59:00.417Z,100.00
2023-03-26T06:04:03.011Z,100.00
2023-03-26T06:09:06.587Z,100.00
2023-03-26T06:14:10.420Z,100.00
2023-03-26T06:19:12.946Z,100.00
2023-03-26T06:24:16.446Z,100.00
2023-03-26T06:29:20.849Z,100.00
2023-03-26T06:34:23.340Z,100.00
2023-03-26T06:39:26.308Z,100.00
2023-03-26T06:44:30.330Z,100.00
2023-03-26T06:49:34.298Z,100.00
2023-03-26T06:54:36.832Z,100.00
2023-03-26T06:59:40.680Z,100.00
2023-03-26T07:04:43.170Z,100.00
2023-03-26T07:09:45.654Z,100.00
2023-03-26T07:14:49.716Z,100.00
2023-03-26T07:19:53.239Z,100.00
2023-03-26T07:24:56.566Z,100.00
2023-03-26T07:30:06.439Z,100.00
2023-03-26T07:35:15.547Z,100.00
2023-03-26T07:40:29.419Z,100.00
2023-03-26T07:45:39.676Z,100.00
2023-03-26T07:50:42.802Z,100.00
2023-03-26T07:55:53.397Z,99.76
2023-03-26T08:01:03.838Z,100.00
2023-03-26T08:06:14.899Z,99.51
2023-03-26T08:11:31.082Z,98.71
2023-03-26T08:16:42.752Z,98.15
2023-03-26T08:21:51.523Z,96.15
2023-03-26T08:27:01.580Z,96.10
2023-03-26T08:32:13.739Z,93.63
2023-03-26T08:37:16.340Z,94.28
2023-03-26T08:42:39.860Z,92.91
2023-03-26T08:48:21.965Z,92.94
2023-03-26T08:53:59.032Z,91.73
2023-03-26T08:59:34.804Z,91.83
2023-03-26T09:04:58.996Z,90.41
2023-03-26T09:10:33.273Z,89.79
2023-03-26T09:15:49.970Z,88.07
2023-03-26T09:21:19.071Z,88.12
2023-03-26T09:26:40.198Z,86.30
2023-03-26T09:32:15.905Z,84.44
2023-03-26T09:37:26.570Z,84.26
2023-03-26T09:42:43.693Z,84.62
2023-03-26T09:48:19.948Z,84.11
2023-03-26T09:53:41.320Z,82.82
2023-03-26T09:59:05.134Z,81.27
2023-03-26T10:04:48.526Z,79.56
2023-03-26T10:10:00.707Z,80.23
2023-03-26T10:15:18.981Z,80.78
2023-03-26T10:20:33.580Z,78.94
2023-03-26T10:25:50.461Z,78.69
2023-03-26T10:31:08.707Z,78.53
2023-03-26T10:36:26.861Z,78.98
2023-03-26T10:41:38.519Z,79.15
2023-03-26T10:46:58.552Z,78.68
2023-03-26T10:52:04.725Z,78.38
2023-03-26T10:57:15.772Z,76.97
2023-03-26T11:02:29.710Z,76.55
2023-03-26T11:07:41.581Z,76.80
2023-03-26T11:12:48.254Z,75.53
2023-03-26T11:18:01.996Z,73.71
2023-03-26T11:23:24.900Z,72.85
2023-03-26T11:28:38.903Z,73.92
2023-03-26T11:33:47.823Z,74.84
2023-03-26T11:38:51.800Z,74.39
2023-03-26T11:43:58.510Z,73.91
2023-03-26T11:49:09.107Z,72.49
2023-03-26T11:54:13.248Z,71.72
2023-03-26T11:59:21.257Z,72.16
2023-03-26T12:04:34.929Z,72.36
2023-03-26T12:09:37.544Z,71.14
2023-03-26T12:14:43.834Z,70.79
2023-03-26T12:19:48.059Z,70.23
2023-03-26T12:25:02.741Z,68.58
2023-03-26T12:30:13.812Z,69.42
2023-03-26T12:35:20.000Z,68.39
2023-03-26T12:40:31.618Z,69.55
2023-03-26T12:45:40.868Z,70.41
2023-03-26T12:51:00.208Z,71.28
2023-03-26T12:56:12.557Z,68.50
2023-03-26T13:01:23.266Z,69.02
2023-03-26T13:06:59.154Z,70.94
2023-03-26T13:12:10.995Z,72.77
2023-03-26T13:17:20.893Z,72.50
2023-03-26T13:22:32.524Z,71.04
2023-03-26T13:27:42.933Z,70.59
2023-03-26T13:32:58.598Z,71.77
2023-03-26T13:38:10.460Z,70.42
2023-03-26T13:43:38.977Z,71.25
2023-03-26T13:48:47.931Z,69.57
2023-03-26T13:53:56.772Z,69.00
2023-03-26T13:59:04.068Z,70.95
2023-03-26T14:04:15.967Z,70.83
2023-03-26T14:09:25.111Z,70.00
2023-03-26T14:14:34.683Z,70.67
2023-03-26T14:19:55.799Z,71.45
2023-03-26T14:25:14.233Z,70.98
2023-03-26T14:30:44.039Z,69.61
2023-03-26T14:35:59.042Z,71.50
2023-03-26T14:41:20.800Z,71.03
2023-03-26T14:46:37.883Z,71.85
2023-03-26T14:51:55.050Z,71.43
2023-03-26T14:57:27.066Z,72.23
2023-03-26T15:03:03.073Z,73.17
2023-03-26T15:08:54.129Z,71.79
2023-03-26T15:14:11.933Z,72.75
2023-03-26T15:19:56.034Z,71.47
2023-03-26T15:25:31.805Z,71.75
2023-03-26T15:31:16.502Z,72.06
2023-03-26T15:36:50.957Z,70.65
2023-03-26T15:41:59.309Z,71.40
2023-03-26T15:47:27.422Z,71.04
2023-03-26T15:52:36.377Z,72.33
2023-03-26T15:57:43.907Z,73.29
2023-03-26T16:02:58.109Z,71.84
2023-03-26T16:08:08.541Z,71.93
2023-03-26T16:13:38.942Z,72.21
2023-03-26T16:18:43.953Z,72.77
2023-03-26T16:23:55.077Z,73.49
2023-03-26T16:29:14.104Z,74.42
2023-03-26T16:34:28.354Z,74.43
2023-03-26T16:39:42.148Z,74.42
2023-03-26T16:44:51.670Z,73.65
2023-03-26T16:50:09.612Z,72.77
2023-03-26T16:55:20.981Z,73.02
2023-03-26T17:00:36.550Z,74.04
2023-03-26T17:05:56.880Z,74.55
2023-03-26T17:11:06.177Z,75.12
2023-03-26T17:16:18.147Z,75.66
2023-03-26T17:21:46.015Z,75.63
2023-03-26T17:26:58.580Z,75.81
2023-03-26T17:32:08.505Z,76.50
2023-03-26T17:37:31.432Z,76.95
2023-03-26T17:42:37.448Z,77.37
2023-03-26T17:47:44.861Z,78.26
2023-03-26T17:52:57.386Z,79.40
2023-03-26T17:58:02.049Z,80.42
2023-03-26T18:03:12.784Z,80.69
2023-03-26T18:08:41.229Z,80.97
2023-03-26T18:14:23.305Z,80.52
2023-03-26T18:19:26.576Z,80.86
2023-03-26T18:24:34.396Z,81.06
2023-03-26T18:29:38.040Z,81.35
2023-03-26T18:34:49.787Z,81.74
2023-03-26T18:40:02.258Z,81.93
2023-03-26T18:45:09.481Z,81.48
2023-03-26T18:50:16.504Z,81.69
2023-03-26T18:55:20.769Z,82.24
2023-03-26T19:00:26.079Z,82.31
2023-03-26T19:05:29.305Z,82.20
2023-03-26T19:10:34.407Z,82.49
2023-03-26T19:15:36.943Z,82.57
2023-03-26T19:20:43.913Z,82.87
2023-03-26T19:25:50.629Z,83.18
2023-03-26T19:30:57.448Z,83.41
2023-03-26T19:36:05.183Z,83.75
2023-03-26T19:41:21.671Z,83.84
2023-03-26T19:46:25.480Z,84.36
2023-03-26T19:51:33.621Z,85.36
2023-03-26T19:56:37.484Z,85.83
2023-03-26T20:01:40.269Z,85.93
2023-03-26T20:06:44.308Z,86.03
2023-03-26T20:11:48.355Z,86.38
2023-03-26T20:16:51.210Z,86.44
2023-03-26T20:21:54.578Z,87.12
2023-03-26T20:26:58.445Z,87.56
2023-03-26T20:32:01.116Z,88.01
2023-03-26T20:37:04.082Z,87.52
2023-03-26T20:42:08.313Z,88.52
2023-03-26T20:47:12.619Z,88.34
2023-03-26T20:52:16.017Z,89.09
2023-03-26T20:57:20.173Z,89.58
2023-03-26T21:02:23.401Z,89.78
2023-03-26T21:07:26.028Z,89.68
2023-03-26T21:12:32.506Z,89.54
2023-03-26T21:17:36.288Z,89.47
2023-03-26T21:22:46.034Z,89.25
2023-03-26T21:28:02.308Z,89.65
2023-03-26T21:33:05.439Z,89.63
2023-03-26T21:38:09.334Z,89.71
2023-03-26T21:43:13.793Z,90.19
2023-03-26T21:48:16.892Z,90.09
2023-03-26T21:53:19.908Z,90.17
2023-03-26T21:58:41.773Z,89.92
2023-03-26T22:03:55.956Z,90.68
2023-03-26T22:08:59.359Z,90.38
2023-03-26T22:14:03.217Z,90.10
2023-03-26T22:19:07.195Z,88.89
2023-03-26T22:24:09.729Z,87.10
2023-03-26T22:29:14.074Z,86.52
2023-03-26T22:34:16.670Z,85.39
2023-03-26T22:39:19.158Z,86.14
2023-03-26T22:44:22.991Z,85.50
2023-03-26T22:49:27.413Z,85.14
2023-03-26T22:54:29.930Z,85.88
2023-03-26T22:59:33.796Z,85.66
2023-03-26T23:04:37.575Z,85.13
2023-03-26T23:09:40.185Z,85.20
2023-03-26T23:14:44.015Z,85.59
2023-03-26T23:19:46.708Z,85.99
2023-03-26T23:24:49.383Z,86.04
2023-03-26T23:29:53.334Z,86.12
2023-03-26T23:34:56.344Z,85.87
2023-03-26T23:40:00.405Z,86.34
2023-03-26T23:45:04.378Z,85.95
2023-03-26T23:50:08.054Z,85.91
2023-03-26T23:55:10.831Z,85.46
